sensor_id;sensor_type;location;lat;lon;timestamp;P1;durP1;ratioP1;P2;durP2;ratioP2
30647;SDS011;17683;53.360;9.736;2023-04-21T00:02:05;18.77;;;9.77;;
30647;SDS011;17683;53.360;9.736;2023-04-21T00:04:31;14.70;;;9.40;;
30647;SDS011;17683;53.360;9.736;2023-04-21T00:06:57;17.75;;;10.65;;
30647;SDS011;17683;53.360;9.736;2023-04-21T00:09:25;22.30;;;11.57;;
30647;SDS011;17683;53.360;9.736;2023-04-21T00:11:52;14.55;;;10.38;;
30647;SDS011;17683;53.360;9.736;2023-04-21T00:14:17;16.10;;;9.00;;
30647;SDS011;17683;53.360;9.736;2023-04-21T00:16:43;21.33;;;10.88;;
30647;SDS011;17683;53.360;9.736;2023-04-21T00:19:09;19.08;;;10.57;;
30647;SDS011;17683;53.360;9.736;2023-04-21T00:21:37;19.55;;;10.13;;
30647;SDS011;17683;53.360;9.736;2023-04-21T00:24:03;17.63;;;9.77;;
30647;SDS011;17683;53.360;9.736;2023-04-21T00:26:29;17.42;;;9.20;;
30647;SDS011;17683;53.360;9.736;2023-04-21T00:28:55;19.23;;;9.73;;
30647;SDS011;17683;53.360;9.736;2023-04-21T00:31:21;18.95;;;10.20;;
30647;SDS011;17683;53.360;9.736;2023-04-21T00:33:46;18.63;;;10.52;;
30647;SDS011;17683;53.360;9.736;2023-04-21T00:36:12;18.85;;;9.45;;
30647;SDS011;17683;53.360;9.736;2023-04-21T00:38:37;17.90;;;11.40;;
30647;SDS011;17683;53.360;9.736;2023-04-21T00:41:03;15.55;;;10.52;;
30647;SDS011;17683;53.360;9.736;2023-04-21T00:43:29;14.32;;;9.68;;
30647;SDS011;17683;53.360;9.736;2023-04-21T00:45:55;18.35;;;10.75;;
30647;SDS011;17683;53.360;9.736;2023-04-21T00:48:20;15.02;;;10.07;;
30647;SDS011;17683;53.360;9.736;2023-04-21T00:50:46;17.13;;;10.75;;
30647;SDS011;17683;53.360;9.736;2023-04-21T00:53:13;16.77;;;10.93;;
30647;SDS011;17683;53.360;9.736;2023-04-21T00:55:39;14.73;;;9.02;;
30647;SDS011;17683;53.360;9.736;2023-04-21T00:58:05;20.55;;;11.00;;
30647;SDS011;17683;53.360;9.736;2023-04-21T01:00:31;18.67;;;9.57;;
30647;SDS011;17683;53.360;9.736;2023-04-21T01:02:57;17.00;;;9.27;;
30647;SDS011;17683;53.360;9.736;2023-04-21T01:05:24;16.52;;;10.23;;
30647;SDS011;17683;53.360;9.736;2023-04-21T01:07:50;12.32;;;8.77;;
30647;SDS011;17683;53.360;9.736;2023-04-21T01:10:16;24.98;;;11.20;;
30647;SDS011;17683;53.360;9.736;2023-04-21T01:12:45;14.65;;;9.85;;
30647;SDS011;17683;53.360;9.736;2023-04-21T01:15:12;17.35;;;10.23;;
30647;SDS011;17683;53.360;9.736;2023-04-21T01:17:39;18.05;;;9.95;;
30647;SDS011;17683;53.360;9.736;2023-04-21T01:20:09;17.13;;;9.85;;
30647;SDS011;17683;53.360;9.736;2023-04-21T01:22:37;16.80;;;9.52;;
30647;SDS011;17683;53.360;9.736;2023-04-21T01:25:03;17.05;;;10.20;;
30647;SDS011;17683;53.360;9.736;2023-04-21T01:27:30;21.23;;;10.48;;
30647;SDS011;17683;53.360;9.736;2023-04-21T01:29:56;20.77;;;9.63;;
30647;SDS011;17683;53.360;9.736;2023-04-21T01:32:23;15.70;;;10.00;;
30647;SDS011;17683;53.360;9.736;2023-04-21T01:34:51;17.80;;;9.95;;
30647;SDS011;17683;53.360;9.736;2023-04-21T01:37:18;16.55;;;10.57;;
30647;SDS011;17683;53.360;9.736;2023-04-21T01:39:47;17.77;;;10.05;;
30647;SDS011;17683;53.360;9.736;2023-04-21T01:42:16;18.42;;;9.73;;
30647;SDS011;17683;53.360;9.736;2023-04-21T01:44:42;22.08;;;10.63;;
30647;SDS011;17683;53.360;9.736;2023-04-21T01:47:08;19.75;;;11.43;;
30647;SDS011;17683;53.360;9.736;2023-04-21T01:49:35;16.42;;;10.38;;
30647;SDS011;17683;53.360;9.736;2023-04-21T01:52:00;18.55;;;10.63;;
30647;SDS011;17683;53.360;9.736;2023-04-21T01:54:26;21.13;;;10.68;;
30647;SDS011;17683;53.360;9.736;2023-04-21T01:56:52;19.80;;;9.88;;
30647;SDS011;17683;53.360;9.736;2023-04-21T01:59:18;23.48;;;9.70;;
30647;SDS011;17683;53.360;9.736;2023-04-21T02:01:43;19.40;;;10.02;;
30647;SDS011;17683;53.360;9.736;2023-04-21T02:04:09;17.20;;;10.23;;
30647;SDS011;17683;53.360;9.736;2023-04-21T02:06:35;16.48;;;9.13;;
30647;SDS011;17683;53.360;9.736;2023-04-21T02:09:00;20.02;;;9.98;;
30647;SDS011;17683;53.360;9.736;2023-04-21T02:11:26;17.70;;;9.38;;
30647;SDS011;17683;53.360;9.736;2023-04-21T02:13:52;21.55;;;10.13;;
30647;SDS011;17683;53.360;9.736;2023-04-21T02:16:19;18.48;;;9.15;;
30647;SDS011;17683;53.360;9.736;2023-04-21T02:18:46;21.60;;;9.82;;
30647;SDS011;17683;53.360;9.736;2023-04-21T02:21:12;17.08;;;9.65;;
30647;SDS011;17683;53.360;9.736;2023-04-21T02:23:38;16.08;;;8.80;;
30647;SDS011;17683;53.360;9.736;2023-04-21T02:26:04;16.10;;;10.32;;
30647;SDS011;17683;53.360;9.736;2023-04-21T02:28:30;21.75;;;10.48;;
30647;SDS011;17683;53.360;9.736;2023-04-21T02:30:56;16.08;;;9.63;;
30647;SDS011;17683;53.360;9.736;2023-04-21T02:33:21;18.65;;;10.05;;
30647;SDS011;17683;53.360;9.736;2023-04-21T02:35:47;21.17;;;10.43;;
30647;SDS011;17683;53.360;9.736;2023-04-21T02:38:13;23.50;;;11.05;;
30647;SDS011;17683;53.360;9.736;2023-04-21T02:40:38;15.77;;;9.10;;
30647;SDS011;17683;53.360;9.736;2023-04-21T02:43:05;16.65;;;9.20;;
30647;SDS011;17683;53.360;9.736;2023-04-21T02:45:30;19.00;;;8.98;;
30647;SDS011;17683;53.360;9.736;2023-04-21T02:47:56;17.15;;;9.90;;
30647;SDS011;17683;53.360;9.736;2023-04-21T02:50:23;20.50;;;10.68;;
30647;SDS011;17683;53.360;9.736;2023-04-21T02:52:49;17.33;;;11.13;;
30647;SDS011;17683;53.360;9.736;2023-04-21T02:55:15;20.77;;;10.70;;
30647;SDS011;17683;53.360;9.736;2023-04-21T02:57:41;21.30;;;9.73;;
30647;SDS011;17683;53.360;9.736;2023-04-21T03:00:07;15.60;;;9.30;;
30647;SDS011;17683;53.360;9.736;2023-04-21T03:02:35;18.25;;;10.00;;
30647;SDS011;17683;53.360;9.736;2023-04-21T03:05:01;14.95;;;10.02;;
30647;SDS011;17683;53.360;9.736;2023-04-21T03:07:28;22.08;;;10.18;;
30647;SDS011;17683;53.360;9.736;2023-04-21T03:09:54;16.35;;;9.73;;
30647;SDS011;17683;53.360;9.736;2023-04-21T03:12:19;18.65;;;9.70;;
30647;SDS011;17683;53.360;9.736;2023-04-21T03:14:45;17.17;;;9.82;;
30647;SDS011;17683;53.360;9.736;2023-04-21T03:17:11;17.65;;;10.05;;
30647;SDS011;17683;53.360;9.736;2023-04-21T03:19:37;15.75;;;9.27;;
30647;SDS011;17683;53.360;9.736;2023-04-21T03:22:02;15.65;;;9.05;;
30647;SDS011;17683;53.360;9.736;2023-04-21T03:24:28;27.40;;;11.27;;
30647;SDS011;17683;53.360;9.736;2023-04-21T03:26:54;26.75;;;10.80;;
30647;SDS011;17683;53.360;9.736;2023-04-21T03:29:21;23.80;;;12.02;;
30647;SDS011;17683;53.360;9.736;2023-04-21T03:31:47;15.10;;;9.70;;
30647;SDS011;17683;53.360;9.736;2023-04-21T03:34:12;18.88;;;10.63;;
30647;SDS011;17683;53.360;9.736;2023-04-21T03:36:38;21.55;;;10.23;;
30647;SDS011;17683;53.360;9.736;2023-04-21T03:39:04;27.17;;;12.10;;
30647;SDS011;17683;53.360;9.736;2023-04-21T03:41:30;16.77;;;10.88;;
30647;SDS011;17683;53.360;9.736;2023-04-21T03:43:57;17.60;;;9.75;;
30647;SDS011;17683;53.360;9.736;2023-04-21T03:46:22;18.30;;;10.15;;
30647;SDS011;17683;53.360;9.736;2023-04-21T03:48:48;16.27;;;9.55;;
30647;SDS011;17683;53.360;9.736;2023-04-21T03:51:14;19.60;;;10.40;;
30647;SDS011;17683;53.360;9.736;2023-04-21T03:53:40;18.85;;;10.40;;
30647;SDS011;17683;53.360;9.736;2023-04-21T03:56:06;20.35;;;10.07;;
30647;SDS011;17683;53.360;9.736;2023-04-21T03:58:32;25.17;;;11.00;;
30647;SDS011;17683;53.360;9.736;2023-04-21T04:00:57;19.73;;;9.85;;
30647;SDS011;17683;53.360;9.736;2023-04-21T04:03:23;17.48;;;10.32;;
30647;SDS011;17683;53.360;9.736;2023-04-21T04:05:49;14.75;;;10.07;;
30647;SDS011;17683;53.360;9.736;2023-04-21T04:08:15;21.83;;;11.68;;
30647;SDS011;17683;53.360;9.736;2023-04-21T04:10:40;21.73;;;10.68;;
30647;SDS011;17683;53.360;9.736;2023-04-21T04:13:06;14.43;;;9.57;;
30647;SDS011;17683;53.360;9.736;2023-04-21T04:15:31;21.98;;;10.65;;
30647;SDS011;17683;53.360;9.736;2023-04-21T04:17:57;17.25;;;10.25;;
30647;SDS011;17683;53.360;9.736;2023-04-21T04:20:23;14.65;;;10.77;;
30647;SDS011;17683;53.360;9.736;2023-04-21T04:22:49;15.77;;;11.55;;
30647;SDS011;17683;53.360;9.736;2023-04-21T04:25:14;16.63;;;10.32;;
30647;SDS011;17683;53.360;9.736;2023-04-21T04:27:41;21.58;;;10.77;;
30647;SDS011;17683;53.360;9.736;2023-04-21T04:30:10;17.38;;;10.90;;
30647;SDS011;17683;53.360;9.736;2023-04-21T04:32:37;15.85;;;10.23;;
30647;SDS011;17683;53.360;9.736;2023-04-21T04:35:06;23.00;;;11.63;;
30647;SDS011;17683;53.360;9.736;2023-04-21T04:37:36;23.48;;;11.32;;
30647;SDS011;17683;53.360;9.736;2023-04-21T04:40:02;17.10;;;9.95;;
30647;SDS011;17683;53.360;9.736;2023-04-21T04:42:39;23.88;;;11.10;;
30647;SDS011;17683;53.360;9.736;2023-04-21T04:45:06;17.65;;;10.98;;
30647;SDS011;17683;53.360;9.736;2023-04-21T04:47:33;23.60;;;12.55;;
30647;SDS011;17683;53.360;9.736;2023-04-21T04:49:59;18.15;;;10.55;;
30647;SDS011;17683;53.360;9.736;2023-04-21T04:52:25;17.30;;;11.05;;
30647;SDS011;17683;53.360;9.736;2023-04-21T04:54:51;15.38;;;10.05;;
30647;SDS011;17683;53.360;9.736;2023-04-21T04:57:16;16.95;;;11.07;;
30647;SDS011;17683;53.360;9.736;2023-04-21T04:59:42;21.65;;;11.98;;
30647;SDS011;17683;53.360;9.736;2023-04-21T05:02:08;28.63;;;11.98;;
30647;SDS011;17683;53.360;9.736;2023-04-21T05:04:34;14.98;;;10.48;;
30647;SDS011;17683;53.360;9.736;2023-04-21T05:07:03;19.27;;;11.20;;
30647;SDS011;17683;53.360;9.736;2023-04-21T05:09:30;20.70;;;10.73;;
30647;SDS011;17683;53.360;9.736;2023-04-21T05:11:55;18.83;;;11.43;;
30647;SDS011;17683;53.360;9.736;2023-04-21T05:14:21;19.10;;;11.70;;
30647;SDS011;17683;53.360;9.736;2023-04-21T05:16:47;16.80;;;10.15;;
30647;SDS011;17683;53.360;9.736;2023-04-21T05:19:12;20.00;;;10.68;;
30647;SDS011;17683;53.360;9.736;2023-04-21T05:21:38;17.25;;;10.82;;
30647;SDS011;17683;53.360;9.736;2023-04-21T05:24:04;22.83;;;11.45;;
30647;SDS011;17683;53.360;9.736;2023-04-21T05:26:30;15.30;;;11.35;;
30647;SDS011;17683;53.360;9.736;2023-04-21T05:28:56;22.17;;;11.48;;
30647;SDS011;17683;53.360;9.736;2023-04-21T05:31:23;20.33;;;12.05;;
30647;SDS011;17683;53.360;9.736;2023-04-21T05:33:49;19.80;;;11.27;;
30647;SDS011;17683;53.360;9.736;2023-04-21T05:36:15;26.40;;;11.93;;
30647;SDS011;17683;53.360;9.736;2023-04-21T05:38:41;25.98;;;10.57;;
30647;SDS011;17683;53.360;9.736;2023-04-21T05:41:07;14.05;;;9.98;;
30647;SDS011;17683;53.360;9.736;2023-04-21T05:43:32;18.67;;;10.90;;
30647;SDS011;17683;53.360;9.736;2023-04-21T05:45:59;23.92;;;11.43;;
30647;SDS011;17683;53.360;9.736;2023-04-21T05:48:32;27.30;;;11.70;;
30647;SDS011;17683;53.360;9.736;2023-04-21T05:51:06;16.85;;;10.70;;
30647;SDS011;17683;53.360;9.736;2023-04-21T05:53:33;16.15;;;9.90;;
30647;SDS011;17683;53.360;9.736;2023-04-21T05:55:59;17.55;;;11.50;;
30647;SDS011;17683;53.360;9.736;2023-04-21T05:58:24;22.33;;;11.80;;
30647;SDS011;17683;53.360;9.736;2023-04-21T06:00:50;21.70;;;10.70;;
30647;SDS011;17683;53.360;9.736;2023-04-21T06:03:16;17.48;;;11.50;;
30647;SDS011;17683;53.360;9.736;2023-04-21T06:05:41;22.98;;;11.98;;
30647;SDS011;17683;53.360;9.736;2023-04-21T06:08:07;18.73;;;11.05;;
30647;SDS011;17683;53.360;9.736;2023-04-21T06:10:33;22.08;;;11.05;;
30647;SDS011;17683;53.360;9.736;2023-04-21T06:12:58;22.73;;;11.88;;
30647;SDS011;17683;53.360;9.736;2023-04-21T06:15:24;17.42;;;9.95;;
30647;SDS011;17683;53.360;9.736;2023-04-21T06:17:53;17.35;;;10.50;;
30647;SDS011;17683;53.360;9.736;2023-04-21T06:20:21;13.73;;;10.02;;
30647;SDS011;17683;53.360;9.736;2023-04-21T06:22:47;21.90;;;10.57;;
30647;SDS011;17683;53.360;9.736;2023-04-21T06:25:12;15.93;;;10.27;;
30647;SDS011;17683;53.360;9.736;2023-04-21T06:27:38;16.92;;;10.73;;
30647;SDS011;17683;53.360;9.736;2023-04-21T06:30:04;18.33;;;10.48;;
30647;SDS011;17683;53.360;9.736;2023-04-21T06:32:30;18.67;;;11.23;;
30647;SDS011;17683;53.360;9.736;2023-04-21T06:34:56;24.60;;;11.95;;
30647;SDS011;17683;53.360;9.736;2023-04-21T06:37:25;18.35;;;10.85;;
30647;SDS011;17683;53.360;9.736;2023-04-21T06:39:51;15.50;;;10.55;;
30647;SDS011;17683;53.360;9.736;2023-04-21T06:42:16;23.38;;;10.45;;
30647;SDS011;17683;53.360;9.736;2023-04-21T06:44:42;17.95;;;11.15;;
30647;SDS011;17683;53.360;9.736;2023-04-21T06:47:07;18.00;;;10.57;;
30647;SDS011;17683;53.360;9.736;2023-04-21T06:49:33;18.88;;;10.30;;
30647;SDS011;17683;53.360;9.736;2023-04-21T06:52:01;22.98;;;11.23;;
30647;SDS011;17683;53.360;9.736;2023-04-21T06:54:27;17.02;;;11.15;;
30647;SDS011;17683;53.360;9.736;2023-04-21T06:56:53;18.15;;;10.32;;
30647;SDS011;17683;53.360;9.736;2023-04-21T06:59:18;17.35;;;10.73;;
30647;SDS011;17683;53.360;9.736;2023-04-21T07:01:44;16.50;;;10.10;;
30647;SDS011;17683;53.360;9.736;2023-04-21T07:04:13;21.83;;;11.43;;
30647;SDS011;17683;53.360;9.736;2023-04-21T07:06:38;18.90;;;9.90;;
30647;SDS011;17683;53.360;9.736;2023-04-21T07:09:05;18.30;;;11.50;;
30647;SDS011;17683;53.360;9.736;2023-04-21T07:11:30;17.23;;;11.50;;
30647;SDS011;17683;53.360;9.736;2023-04-21T07:13:56;14.43;;;10.00;;
30647;SDS011;17683;53.360;9.736;2023-04-21T07:16:25;18.40;;;10.77;;
30647;SDS011;17683;53.360;9.736;2023-04-21T07:18:50;20.15;;;10.50;;
30647;SDS011;17683;53.360;9.736;2023-04-21T07:21:16;14.43;;;10.65;;
30647;SDS011;17683;53.360;9.736;2023-04-21T07:23:42;18.75;;;11.63;;
30647;SDS011;17683;53.360;9.736;2023-04-21T07:26:08;18.10;;;10.27;;
30647;SDS011;17683;53.360;9.736;2023-04-21T07:28:34;16.75;;;10.85;;
30647;SDS011;17683;53.360;9.736;2023-04-21T07:31:00;19.23;;;10.63;;
30647;SDS011;17683;53.360;9.736;2023-04-21T07:33:25;14.98;;;10.05;;
30647;SDS011;17683;53.360;9.736;2023-04-21T07:35:51;20.30;;;11.38;;
30647;SDS011;17683;53.360;9.736;2023-04-21T07:38:17;20.00;;;10.35;;
30647;SDS011;17683;53.360;9.736;2023-04-21T07:40:43;15.65;;;9.68;;
30647;SDS011;17683;53.360;9.736;2023-04-21T07:43:09;17.05;;;10.15;;
30647;SDS011;17683;53.360;9.736;2023-04-21T07:45:35;14.45;;;10.75;;
30647;SDS011;17683;53.360;9.736;2023-04-21T07:48:00;15.73;;;10.30;;
30647;SDS011;17683;53.360;9.736;2023-04-21T07:50:26;17.35;;;10.27;;
30647;SDS011;17683;53.360;9.736;2023-04-21T07:52:52;18.48;;;10.10;;
30647;SDS011;17683;53.360;9.736;2023-04-21T07:55:17;16.15;;;10.13;;
30647;SDS011;17683;53.360;9.736;2023-04-21T07:57:43;18.85;;;10.30;;
30647;SDS011;17683;53.360;9.736;2023-04-21T08:00:09;22.73;;;10.77;;
30647;SDS011;17683;53.360;9.736;2023-04-21T08:02:35;20.13;;;10.50;;
30647;SDS011;17683;53.360;9.736;2023-04-21T08:05:01;15.90;;;10.90;;
30647;SDS011;17683;53.360;9.736;2023-04-21T08:07:27;13.73;;;11.05;;
30647;SDS011;17683;53.360;9.736;2023-04-21T08:09:52;17.30;;;11.07;;
30647;SDS011;17683;53.360;9.736;2023-04-21T08:12:18;18.88;;;10.65;;
30647;SDS011;17683;53.360;9.736;2023-04-21T08:14:44;15.82;;;10.13;;
30647;SDS011;17683;53.360;9.736;2023-04-21T08:17:10;18.13;;;10.73;;
30647;SDS011;17683;53.360;9.736;2023-04-21T08:19:35;17.90;;;10.70;;
30647;SDS011;17683;53.360;9.736;2023-04-21T08:22:01;18.98;;;10.45;;
30647;SDS011;17683;53.360;9.736;2023-04-21T08:24:27;15.88;;;8.90;;
30647;SDS011;17683;53.360;9.736;2023-04-21T08:26:52;15.02;;;10.32;;
30647;SDS011;17683;53.360;9.736;2023-04-21T08:29:18;15.63;;;10.43;;
30647;SDS011;17683;53.360;9.736;2023-04-21T08:31:44;17.50;;;10.18;;
30647;SDS011;17683;53.360;9.736;2023-04-21T08:34:10;15.50;;;9.88;;
30647;SDS011;17683;53.360;9.736;2023-04-21T08:36:36;14.68;;;10.57;;
30647;SDS011;17683;53.360;9.736;2023-04-21T08:39:02;17.35;;;10.85;;
30647;SDS011;17683;53.360;9.736;2023-04-21T08:41:28;14.93;;;10.63;;
30647;SDS011;17683;53.360;9.736;2023-04-21T08:43:53;19.50;;;10.07;;
30647;SDS011;17683;53.360;9.736;2023-04-21T08:46:19;15.90;;;11.10;;
30647;SDS011;17683;53.360;9.736;2023-04-21T08:48:46;13.48;;;8.90;;
30647;SDS011;17683;53.360;9.736;2023-04-21T08:51:13;17.48;;;10.55;;
30647;SDS011;17683;53.360;9.736;2023-04-21T08:53:43;14.00;;;9.40;;
30647;SDS011;17683;53.360;9.736;2023-04-21T08:56:10;12.13;;;9.13;;
30647;SDS011;17683;53.360;9.736;2023-04-21T08:58:35;14.77;;;10.23;;
30647;SDS011;17683;53.360;9.736;2023-04-21T09:01:01;15.68;;;9.88;;
30647;SDS011;17683;53.360;9.736;2023-04-21T09:03:27;13.68;;;9.70;;
30647;SDS011;17683;53.360;9.736;2023-04-21T09:05:57;15.20;;;9.88;;
30647;SDS011;17683;53.360;9.736;2023-04-21T09:08:30;13.65;;;9.38;;
30647;SDS011;17683;53.360;9.736;2023-04-21T09:10:56;14.77;;;9.25;;
30647;SDS011;17683;53.360;9.736;2023-04-21T09:13:34;13.93;;;8.90;;
30647;SDS011;17683;53.360;9.736;2023-04-21T09:16:01;17.35;;;9.73;;
30647;SDS011;17683;53.360;9.736;2023-04-21T09:18:28;13.63;;;8.80;;
30647;SDS011;17683;53.360;9.736;2023-04-21T09:21:12;13.30;;;9.27;;
30647;SDS011;17683;53.360;9.736;2023-04-21T09:26:05;13.75;;;9.23;;
30647;SDS011;17683;53.360;9.736;2023-04-21T09:28:31;13.18;;;10.00;;
30647;SDS011;17683;53.360;9.736;2023-04-21T09:30:57;13.23;;;9.43;;
30647;SDS011;17683;53.360;9.736;2023-04-21T09:33:23;12.25;;;8.85;;
30647;SDS011;17683;53.360;9.736;2023-04-21T09:35:48;17.55;;;9.50;;
30647;SDS011;17683;53.360;9.736;2023-04-21T09:38:17;12.20;;;8.35;;
30647;SDS011;17683;53.360;9.736;2023-04-21T09:40:55;11.68;;;8.18;;
30647;SDS011;17683;53.360;9.736;2023-04-21T09:43:22;20.63;;;10.55;;
30647;SDS011;17683;53.360;9.736;2023-04-21T09:45:48;16.63;;;9.98;;
30647;SDS011;17683;53.360;9.736;2023-04-21T09:48:15;13.45;;;10.00;;
30647;SDS011;17683;53.360;9.736;2023-04-21T09:50:42;15.18;;;9.10;;
30647;SDS011;17683;53.360;9.736;2023-04-21T09:53:11;19.90;;;10.60;;
30647;SDS011;17683;53.360;9.736;2023-04-21T09:55:39;13.35;;;9.25;;
30647;SDS011;17683;53.360;9.736;2023-04-21T09:58:07;17.80;;;9.85;;
30647;SDS011;17683;53.360;9.736;2023-04-21T10:00:37;12.18;;;9.10;;
30647;SDS011;17683;53.360;9.736;2023-04-21T10:03:04;12.32;;;9.18;;
30647;SDS011;17683;53.360;9.736;2023-04-21T10:05:34;15.57;;;9.60;;
30647;SDS011;17683;53.360;9.736;2023-04-21T10:08:01;17.63;;;10.30;;
30647;SDS011;17683;53.360;9.736;2023-04-21T10:10:31;12.13;;;9.50;;
30647;SDS011;17683;53.360;9.736;2023-04-21T10:12:59;16.40;;;9.65;;
30647;SDS011;17683;53.360;9.736;2023-04-21T10:20:52;17.48;;;9.02;;
30647;SDS011;17683;53.360;9.736;2023-04-21T10:23:28;16.17;;;10.23;;
30647;SDS011;17683;53.360;9.736;2023-04-21T10:26:11;11.93;;;9.10;;
30647;SDS011;17683;53.360;9.736;2023-04-21T10:28:40;12.77;;;9.73;;
30647;SDS011;17683;53.360;9.736;2023-04-21T10:44:43;12.88;;;9.48;;
30647;SDS011;17683;53.360;9.736;2023-04-21T10:47:34;14.55;;;9.15;;
30647;SDS011;17683;53.360;9.736;2023-04-21T10:52:36;12.93;;;8.95;;
30647;SDS011;17683;53.360;9.736;2023-04-21T10:57:34;12.25;;;8.98;;
30647;SDS011;17683;53.360;9.736;2023-04-21T11:00:00;16.20;;;9.40;;
30647;SDS011;17683;53.360;9.736;2023-04-21T11:02:30;13.48;;;9.27;;
30647;SDS011;17683;53.360;9.736;2023-04-21T11:04:58;13.82;;;8.68;;
30647;SDS011;17683;53.360;9.736;2023-04-21T11:07:25;13.57;;;8.93;;
30647;SDS011;17683;53.360;9.736;2023-04-21T11:10:09;14.45;;;8.57;;
30647;SDS011;17683;53.360;9.736;2023-04-21T11:12:38;11.07;;;8.85;;
30647;SDS011;17683;53.360;9.736;2023-04-21T11:15:06;14.10;;;8.93;;
30647;SDS011;17683;53.360;9.736;2023-04-21T11:17:38;13.10;;;9.03;;
30647;SDS011;17683;53.360;9.736;2023-04-21T11:20:07;13.85;;;9.07;;
30647;SDS011;17683;53.360;9.736;2023-04-21T11:22:34;11.02;;;8.20;;
30647;SDS011;17683;53.360;9.736;2023-04-21T11:25:01;10.55;;;8.40;;
30647;SDS011;17683;53.360;9.736;2023-04-21T11:27:28;15.15;;;8.90;;
30647;SDS011;17683;53.360;9.736;2023-04-21T11:29:54;11.20;;;7.90;;
30647;SDS011;17683;53.360;9.736;2023-04-21T11:32:21;12.85;;;7.82;;
30647;SDS011;17683;53.360;9.736;2023-04-21T11:34:47;12.65;;;8.60;;
30647;SDS011;17683;53.360;9.736;2023-04-21T11:37:23;13.27;;;9.30;;
30647;SDS011;17683;53.360;9.736;2023-04-21T11:40:00;12.25;;;8.30;;
30647;SDS011;17683;53.360;9.736;2023-04-21T11:42:30;11.75;;;8.50;;
30647;SDS011;17683;53.360;9.736;2023-04-21T11:44:56;14.95;;;8.13;;
30647;SDS011;17683;53.360;9.736;2023-04-21T11:47:23;16.33;;;8.15;;
30647;SDS011;17683;53.360;9.736;2023-04-21T11:49:53;11.13;;;7.80;;
30647;SDS011;17683;53.360;9.736;2023-04-21T11:52:22;14.60;;;8.48;;
30647;SDS011;17683;53.360;9.736;2023-04-21T11:55:32;10.80;;;7.70;;
30647;SDS011;17683;53.360;9.736;2023-04-21T11:57:41;16.83;;;8.00;;
30647;SDS011;17683;53.360;9.736;2023-04-21T12:00:08;11.40;;;8.00;;
30647;SDS011;17683;53.360;9.736;2023-04-21T12:02:36;11.73;;;8.30;;
30647;SDS011;17683;53.360;9.736;2023-04-21T12:07:31;12.63;;;8.15;;
30647;SDS011;17683;53.360;9.736;2023-04-21T12:09:58;10.80;;;7.60;;
30647;SDS011;17683;53.360;9.736;2023-04-21T12:12:24;11.82;;;7.53;;
30647;SDS011;17683;53.360;9.736;2023-04-21T12:14:50;11.32;;;7.47;;
30647;SDS011;17683;53.360;9.736;2023-04-21T12:17:17;12.18;;;7.50;;
30647;SDS011;17683;53.360;9.736;2023-04-21T12:19:43;15.82;;;7.65;;
30647;SDS011;17683;53.360;9.736;2023-04-21T12:22:10;11.32;;;7.20;;
30647;SDS011;17683;53.360;9.736;2023-04-21T12:24:37;13.23;;;7.32;;
30647;SDS011;17683;53.360;9.736;2023-04-21T12:27:04;11.73;;;7.35;;
30647;SDS011;17683;53.360;9.736;2023-04-21T12:29:30;12.88;;;8.07;;
30647;SDS011;17683;53.360;9.736;2023-04-21T12:31:59;12.23;;;7.20;;
30647;SDS011;17683;53.360;9.736;2023-04-21T12:34:24;11.90;;;7.32;;
30647;SDS011;17683;53.360;9.736;2023-04-21T12:36:50;10.38;;;7.30;;
30647;SDS011;17683;53.360;9.736;2023-04-21T12:39:15;9.18;;;7.63;;
30647;SDS011;17683;53.360;9.736;2023-04-21T12:41:42;9.20;;;7.22;;
30647;SDS011;17683;53.360;9.736;2023-04-21T12:44:09;12.20;;;8.30;;
30647;SDS011;17683;53.360;9.736;2023-04-21T12:46:35;11.30;;;7.70;;
30647;SDS011;17683;53.360;9.736;2023-04-21T12:49:00;9.48;;;7.45;;
30647;SDS011;17683;53.360;9.736;2023-04-21T12:51:27;9.18;;;7.20;;
30647;SDS011;17683;53.360;9.736;2023-04-21T12:53:53;9.25;;;6.80;;
30647;SDS011;17683;53.360;9.736;2023-04-21T12:56:19;10.00;;;7.43;;
30647;SDS011;17683;53.360;9.736;2023-04-21T12:58:45;10.25;;;6.68;;
30647;SDS011;17683;53.360;9.736;2023-04-21T13:01:12;15.50;;;7.75;;
30647;SDS011;17683;53.360;9.736;2023-04-21T13:03:40;10.82;;;7.20;;
30647;SDS011;17683;53.360;9.736;2023-04-21T13:06:06;12.70;;;7.72;;
30647;SDS011;17683;53.360;9.736;2023-04-21T13:08:32;12.10;;;6.95;;
30647;SDS011;17683;53.360;9.736;2023-04-21T13:10:58;11.65;;;6.97;;
30647;SDS011;17683;53.360;9.736;2023-04-21T13:13:25;13.10;;;6.65;;
30647;SDS011;17683;53.360;9.736;2023-04-21T13:15:50;9.90;;;6.93;;
30647;SDS011;17683;53.360;9.736;2023-04-21T13:18:16;13.85;;;7.43;;
30647;SDS011;17683;53.360;9.736;2023-04-21T13:20:42;10.10;;;6.72;;
30647;SDS011;17683;53.360;9.736;2023-04-21T13:23:08;9.68;;;6.60;;
30647;SDS011;17683;53.360;9.736;2023-04-21T13:25:35;14.68;;;7.00;;
30647;SDS011;17683;53.360;9.736;2023-04-21T13:28:01;9.15;;;7.68;;
30647;SDS011;17683;53.360;9.736;2023-04-21T13:30:26;11.82;;;6.95;;
30647;SDS011;17683;53.360;9.736;2023-04-21T13:32:52;10.20;;;6.18;;
30647;SDS011;17683;53.360;9.736;2023-04-21T13:35:18;10.75;;;6.45;;
30647;SDS011;17683;53.360;9.736;2023-04-21T13:37:44;16.25;;;7.55;;
30647;SDS011;17683;53.360;9.736;2023-04-21T13:40:09;10.52;;;6.55;;
30647;SDS011;17683;53.360;9.736;2023-04-21T13:42:36;8.32;;;5.97;;
30647;SDS011;17683;53.360;9.736;2023-04-21T13:45:02;9.35;;;6.75;;
30647;SDS011;17683;53.360;9.736;2023-04-21T13:47:32;11.25;;;7.25;;
30647;SDS011;17683;53.360;9.736;2023-04-21T13:49:58;16.98;;;7.88;;
30647;SDS011;17683;53.360;9.736;2023-04-21T13:52:24;9.75;;;7.05;;
30647;SDS011;17683;53.360;9.736;2023-04-21T13:54:51;10.38;;;7.28;;
30647;SDS011;17683;53.360;9.736;2023-04-21T13:57:17;10.30;;;6.38;;
30647;SDS011;17683;53.360;9.736;2023-04-21T13:59:44;11.40;;;7.07;;
30647;SDS011;17683;53.360;9.736;2023-04-21T14:02:10;12.02;;;7.28;;
30647;SDS011;17683;53.360;9.736;2023-04-21T14:04:36;7.82;;;6.60;;
30647;SDS011;17683;53.360;9.736;2023-04-21T14:07:02;8.30;;;5.80;;
30647;SDS011;17683;53.360;9.736;2023-04-21T14:09:28;8.80;;;6.90;;
30647;SDS011;17683;53.360;9.736;2023-04-21T14:11:54;7.28;;;6.53;;
30647;SDS011;17683;53.360;9.736;2023-04-21T14:14:22;11.50;;;7.22;;
30647;SDS011;17683;53.360;9.736;2023-04-21T14:16:48;11.45;;;7.78;;
30647;SDS011;17683;53.360;9.736;2023-04-21T14:19:14;10.02;;;6.80;;
30647;SDS011;17683;53.360;9.736;2023-04-21T14:21:41;12.80;;;7.38;;
30647;SDS011;17683;53.360;9.736;2023-04-21T14:24:07;9.93;;;7.07;;
30647;SDS011;17683;53.360;9.736;2023-04-21T14:26:33;9.70;;;7.20;;
30647;SDS011;17683;53.360;9.736;2023-04-21T14:28:59;8.00;;;6.15;;
30647;SDS011;17683;53.360;9.736;2023-04-21T14:31:25;10.10;;;7.68;;
30647;SDS011;17683;53.360;9.736;2023-04-21T14:33:51;10.23;;;6.40;;
30647;SDS011;17683;53.360;9.736;2023-04-21T14:36:17;8.15;;;6.93;;
30647;SDS011;17683;53.360;9.736;2023-04-21T14:38:43;10.23;;;6.93;;
30647;SDS011;17683;53.360;9.736;2023-04-21T14:41:09;11.15;;;7.20;;
30647;SDS011;17683;53.360;9.736;2023-04-21T14:43:35;11.80;;;7.50;;
30647;SDS011;17683;53.360;9.736;2023-04-21T14:46:00;9.82;;;6.95;;
30647;SDS011;17683;53.360;9.736;2023-04-21T14:48:27;9.65;;;7.45;;
30647;SDS011;17683;53.360;9.736;2023-04-21T14:50:53;12.65;;;6.68;;
30647;SDS011;17683;53.360;9.736;2023-04-21T14:53:21;10.48;;;6.82;;
30647;SDS011;17683;53.360;9.736;2023-04-21T14:55:47;14.30;;;7.43;;